Time;durP1;ratioP1;P1;durP2;ratioP2;P2;SDS_P1;SDS_P2;PMS_P1;PMS_P2;Temp;Humidity;BMP_temperature;BMP_pressure;BME280_temperature;BME280_humidity;BME280_pressure;Samples;Min_cycle;Max_cycle;Signal;HPM_P1;HPM_P2
2022/10/14 00:00:20;;;;;;;18.17;3.50;;;16.90;99.90;;;;;;5058433;28;20032;-85
2022/10/14 00:02:45;;;;;;;21.45;3.60;;;16.90;99.90;;;;;;5055599;28;20417;-85
2022/10/14 00:05:11;;;;;;;19.88;3.53;;;16.90;99.90;;;;;;5054705;28;20021;-85
2022/10/14 00:07:37;;;;;;;17.50;3.00;;;16.90;99.90;;;;;;5056898;28;20032;-86
2022/10/14 00:10:05;;;;;;;29.85;3.75;;;16.90;99.90;;;;;;5051846;28;20495;-85
2022/10/14 00:12:31;;;;;;;15.32;3.30;;;16.90;99.90;;;;;;5050139;28;20135;-85
2022/10/14 00:14:58;;;;;;;12.07;3.25;;;16.90;99.90;;;;;;5058013;28;20024;-85
2022/10/14 00:17:24;;;;;;;9.32;3.05;;;16.90;99.90;;;;;;5059188;28;20056;-85
2022/10/14 00:19:49;;;;;;;13.98;2.78;;;16.90;99.90;;;;;;5055202;28;20440;-85
2022/10/14 00:22:15;;;;;;;9.55;2.97;;;16.90;99.90;;;;;;5058619;28;20023;-85
2022/10/14 00:24:43;;;;;;;18.60;3.40;;;16.90;99.90;;;;;;5053748;28;20093;-86
2022/10/14 00:27:09;;;;;;;13.48;3.08;;;16.90;99.90;;;;;;5056999;28;20032;-85
2022/10/14 00:29:35;;;;;;;16.17;3.97;;;16.90;99.90;;;;;;5062011;28;20077;-86
2022/10/14 00:32:01;;;;;;;13.90;2.88;;;16.90;99.90;;;;;;5065265;28;20516;-86
2022/10/14 00:34:26;;;;;;;16.20;3.05;;;16.90;99.90;;;;;;5066954;28;20063;-86
2022/10/14 00:36:52;;;;;;;18.45;3.47;;;17.00;99.90;;;;;;5062505;28;20476;-86
2022/10/14 00:39:18;;;;;;;14.95;3.35;;;16.90;99.90;;;;;;5058232;28;20125;-85
2022/10/14 00:41:44;;;;;;;16.15;4.68;;;17.00;99.90;;;;;;5055228;28;20013;-85
2022/10/14 00:44:09;;;;;;;15.73;3.05;;;16.90;99.90;;;;;;5067478;28;20385;-85
2022/10/14 00:46:46;;;;;;;14.52;3.22;;;17.00;99.90;;;;;;5054002;28;20021;-86
2022/10/14 00:49:48;;;;;;;23.77;3.78;;;17.00;99.90;;;;;;5067144;28;20162;-85
2022/10/14 00:52:18;;;;;;;15.60;3.05;;;16.90;99.90;;;;;;5017650;28;20026;-86
2022/10/14 00:54:48;;;;;;;23.73;4.22;;;16.90;99.90;;;;;;5057842;28;20028;-86
2022/10/14 00:57:15;;;;;;;17.45;2.90;;;16.90;99.90;;;;;;5064441;28;20405;-86
2022/10/14 00:59:41;;;;;;;12.95;1.90;;;16.90;99.90;;;;;;5058956;28;20394;-85
2022/10/14 01:02:07;;;;;;;10.73;1.60;;;16.90;99.90;;;;;;5057094;28;20103;-85
2022/10/14 01:04:36;;;;;;;13.80;2.22;;;16.90;99.90;;;;;;5055887;28;20385;-85
2022/10/14 01:07:16;;;;;;;18.25;2.10;;;16.90;99.90;;;;;;5055906;28;20485;-87
2022/10/14 01:10:08;;;;;;;10.27;2.15;;;16.90;99.90;;;;;;5055079;28;20044;-86
2022/10/14 01:12:52;;;;;;;12.23;2.13;;;16.90;99.90;;;;;;5053161;28;20025;-85
2022/10/14 01:15:35;;;;;;;13.97;2.10;;;16.90;99.90;;;;;;5064086;28;20020;-85
2022/10/14 01:18:07;;;;;;;13.65;2.30;;;16.90;99.90;;;;;;5058194;28;20332;-85
2022/10/14 01:20:36;;;;;;;12.77;1.83;;;16.90;99.90;;;;;;5065926;28;20108;-84
2022/10/14 01:23:32;;;;;;;16.08;2.47;;;16.90;99.90;;;;;;5056954;28;20410;-87
2022/10/14 01:26:24;;;;;;;12.07;2.20;;;16.90;99.90;;;;;;5065980;28;20100;-85
2022/10/14 01:29:12;;;;;;;12.77;1.92;;;16.90;99.90;;;;;;5057473;28;20032;-86
2022/10/14 01:31:43;;;;;;;12.68;2.03;;;16.90;99.90;;;;;;5067327;28;20017;-85
2022/10/14 01:34:12;;;;;;;11.43;2.15;;;16.90;99.90;;;;;;5063794;28;20049;-85
2022/10/14 01:36:50;;;;;;;14.15;2.33;;;16.90;99.90;;;;;;5056513;28;20013;-85
2022/10/14 01:39:24;;;;;;;11.27;1.90;;;16.80;99.90;;;;;;5056809;28;20582;-86
2022/10/14 01:42:08;;;;;;;10.95;1.92;;;16.90;99.90;;;;;;5052869;28;20440;-85
2022/10/14 01:44:39;;;;;;;14.40;2.13;;;16.90;99.90;;;;;;5053962;28;20055;-85
2022/10/14 01:47:07;;;;;;;10.70;1.75;;;16.90;99.90;;;;;;5052997;28;20186;-86
2022/10/14 01:49:41;;;;;;;11.80;1.70;;;16.90;99.90;;;;;;5067120;28;20017;-85
2022/10/14 01:52:21;;;;;;;17.83;1.73;;;16.90;99.90;;;;;;5059859;28;20047;-85
2022/10/14 01:54:50;;;;;;;14.75;2.25;;;16.90;99.90;;;;;;5061372;28;20037;-86
2022/10/14 01:57:23;;;;;;;15.35;1.85;;;16.90;99.90;;;;;;5061428;28;20039;-85
2022/10/14 01:59:51;;;;;;;12.18;1.88;;;16.90;99.90;;;;;;5066334;28;20038;-85
2022/10/14 02:02:17;;;;;;;11.23;1.80;;;16.90;99.90;;;;;;5061129;28;20057;-85
2022/10/14 02:04:43;;;;;;;9.98;1.98;;;16.90;99.90;;;;;;5056081;28;20441;-85
2022/10/14 02:07:40;;;;;;;12.57;1.90;;;16.90;99.90;;;;;;5080512;28;20381;-85
2022/10/14 02:10:14;;;;;;;10.27;1.85;;;16.90;99.90;;;;;;5056564;28;20753;-87
2022/10/14 02:12:58;;;;;;;8.32;1.63;;;16.80;99.90;;;;;;5053885;28;20485;-86
2022/10/14 02:15:26;;;;;;;6.25;1.52;;;16.80;99.90;;;;;;5064239;28;20023;-85
2022/10/14 02:18:03;;;;;;;5.88;1.48;;;16.90;99.90;;;;;;5057117;28;20025;-85
2022/10/14 02:20:32;;;;;;;8.25;2.45;;;16.80;99.90;;;;;;5060878;28;20104;-86
2022/10/14 02:23:05;;;;;;;6.47;1.65;;;16.90;99.90;;;;;;5063434;28;20028;-85
2022/10/14 02:25:33;;;;;;;6.70;1.50;;;16.90;99.90;;;;;;5058956;28;20055;-85
2022/10/14 02:28:01;;;;;;;13.15;2.60;;;16.80;99.90;;;;;;5054186;28;20017;-86
2022/10/14 02:30:31;;;;;;;4.85;1.60;;;16.80;99.90;;;;;;5068301;28;20017;-85
2022/10/14 02:32:59;;;;;;;9.50;1.80;;;16.80;99.90;;;;;;5068298;28;20053;-89
2022/10/14 02:35:27;;;;;;;16.17;2.22;;;16.80;99.90;;;;;;5061904;28;20028;-85
2022/10/14 02:37:56;;;;;;;12.25;1.70;;;16.80;99.90;;;;;;5056654;28;20056;-85
2022/10/14 02:40:34;;;;;;;12.45;1.98;;;16.80;99.90;;;;;;5053168;28;20029;-85
2022/10/14 02:43:00;;;;;;;13.73;2.90;;;16.80;99.90;;;;;;5062768;28;20405;-85
2022/10/14 02:45:26;;;;;;;15.15;2.67;;;16.80;99.90;;;;;;5054233;28;20028;-86
2022/10/14 02:47:53;;;;;;;14.02;2.83;;;16.90;99.90;;;;;;5054530;28;20025;-85
2022/10/14 02:50:19;;;;;;;14.95;2.63;;;16.90;99.90;;;;;;5059846;28;20025;-85
2022/10/14 02:52:45;;;;;;;11.95;1.63;;;16.90;99.90;;;;;;5057529;28;20029;-85
2022/10/14 02:55:11;;;;;;;11.82;2.00;;;16.90;99.90;;;;;;5060396;28;21126;-86
2022/10/14 02:57:37;;;;;;;13.25;1.95;;;16.80;99.90;;;;;;5058937;28;20036;-85
2022/10/14 03:00:04;;;;;;;12.77;2.35;;;16.80;99.90;;;;;;5057277;28;20032;-85
2022/10/14 03:02:30;;;;;;;14.85;2.00;;;16.80;99.90;;;;;;5053417;28;20017;-85
2022/10/14 03:04:57;;;;;;;16.00;2.05;;;16.90;99.90;;;;;;5054891;28;20025;-85
2022/10/14 03:07:23;;;;;;;15.32;2.28;;;16.90;99.90;;;;;;5050876;28;20024;-85
2022/10/14 03:09:49;;;;;;;11.70;2.40;;;16.90;99.90;;;;;;5052084;28;20504;-85
2022/10/14 03:12:14;;;;;;;9.70;2.13;;;16.90;99.90;;;;;;5058370;28;20103;-85
2022/10/14 03:14:40;;;;;;;9.32;2.38;;;16.90;99.90;;;;;;5062587;28;20137;-85
2022/10/14 03:17:07;;;;;;;9.32;1.83;;;16.80;99.90;;;;;;5061726;28;20063;-86
2022/10/14 03:19:32;;;;;;;15.23;2.22;;;16.90;99.90;;;;;;5060680;28;20465;-85
2022/10/14 03:21:58;;;;;;;13.10;2.17;;;16.90;99.90;;;;;;5058720;28;20096;-86
2022/10/14 03:24:24;;;;;;;17.48;2.28;;;16.90;99.90;;;;;;5068747;28;20034;-85
2022/10/14 03:26:49;;;;;;;19.65;2.72;;;16.80;99.90;;;;;;5059167;28;20029;-86
2022/10/14 03:29:15;;;;;;;22.70;3.00;;;16.90;99.90;;;;;;5056759;28;20031;-86
2022/10/14 03:31:41;;;;;;;19.10;3.20;;;16.90;99.90;;;;;;5064534;28;20083;-85
2022/10/14 03:34:06;;;;;;;20.55;4.03;;;16.90;99.90;;;;;;5056109;28;20052;-85
2022/10/14 03:36:32;;;;;;;16.77;2.83;;;16.90;99.90;;;;;;5054666;28;20051;-85
2022/10/14 03:38:58;;;;;;;33.28;4.07;;;16.90;99.90;;;;;;5052746;28;20036;-85
2022/10/14 03:41:23;;;;;;;25.83;4.45;;;16.90;99.90;;;;;;5062909;28;20373;-85
2022/10/14 03:43:49;;;;;;;24.45;3.95;;;16.90;99.90;;;;;;5058662;28;20036;-86
2022/10/14 03:46:14;;;;;;;25.67;3.65;;;16.90;99.90;;;;;;5051018;28;20742;-85
2022/10/14 03:48:40;;;;;;;29.15;4.95;;;16.90;99.90;;;;;;5058571;28;20036;-86
2022/10/14 03:51:06;;;;;;;28.25;4.18;;;17.00;99.90;;;;;;5060525;28;20541;-85
2022/10/14 03:53:32;;;;;;;28.38;4.07;;;16.90;99.90;;;;;;5058811;28;20027;-85
2022/10/14 03:55:57;;;;;;;36.22;4.60;;;17.00;99.90;;;;;;5060493;28;20024;-85
2022/10/14 03:58:23;;;;;;;30.23;4.50;;;17.00;99.90;;;;;;5061047;28;20036;-86
2022/10/14 04:00:49;;;;;;;33.00;5.15;;;17.00;99.90;;;;;;5059052;28;20031;-86
2022/10/14 04:03:14;;;;;;;31.00;4.82;;;17.00;99.90;;;;;;5059434;28;20397;-86
2022/10/14 04:05:40;;;;;;;39.90;6.55;;;17.00;99.90;;;;;;5056095;28;20052;-86
2022/10/14 04:08:06;;;;;;;31.02;5.13;;;17.00;99.90;;;;;;5056441;28;20049;-86
2022/10/14 04:10:31;;;;;;;29.90;5.80;;;17.00;99.90;;;;;;5054582;28;20111;-85
2022/10/14 04:12:57;;;;;;;31.50;4.47;;;17.00;99.90;;;;;;5067606;28;20021;-87
2022/10/14 04:15:23;;;;;;;51.55;5.80;;;17.00;99.90;;;;;;5064454;28;20024;-85
2022/10/14 04:17:48;;;;;;;44.13;5.35;;;17.00;99.90;;;;;;5067027;28;20120;-85
2022/10/14 04:20:15;;;;;;;39.15;6.03;;;17.00;99.90;;;;;;5062340;28;20103;-85
2022/10/14 04:22:41;;;;;;;40.35;5.60;;;17.00;99.90;;;;;;5062708;28;20020;-86
2022/10/14 04:25:07;;;;;;;49.15;7.03;;;17.00;99.90;;;;;;5063494;28;20017;-86
2022/10/14 04:27:33;;;;;;;43.45;5.18;;;17.10;99.90;;;;;;5057053;28;20017;-85
2022/10/14 04:29:59;;;;;;;43.22;5.93;;;17.10;99.90;;;;;;5060657;28;20017;-85
2022/10/14 04:32:24;;;;;;;46.85;6.72;;;17.10;99.90;;;;;;5059883;28;20372;-88
2022/10/14 04:34:50;;;;;;;46.92;5.80;;;17.10;99.90;;;;;;5059158;28;20044;-85
2022/10/14 04:37:16;;;;;;;57.42;6.78;;;17.10;99.90;;;;;;5056642;28;20025;-89
2022/10/14 04:39:41;;;;;;;49.15;7.20;;;17.10;99.90;;;;;;5067040;28;20113;-88
2022/10/14 04:42:07;;;;;;;54.55;6.97;;;17.10;99.90;;;;;;5057651;28;20047;-86
2022/10/14 04:44:33;;;;;;;42.22;6.03;;;17.10;99.90;;;;;;5054573;28;20125;-85
2022/10/14 04:46:58;;;;;;;59.15;6.80;;;17.10;99.90;;;;;;5053667;28;20604;-85
2022/10/14 04:49:24;;;;;;;45.45;5.63;;;17.10;99.90;;;;;;5061486;28;20624;-85
2022/10/14 04:51:50;;;;;;;44.45;6.85;;;17.10;99.90;;;;;;5063155;28;20127;-85
2022/10/14 04:54:15;;;;;;;54.35;7.78;;;17.20;99.90;;;;;;5058324;28;20501;-86
2022/10/14 04:56:41;;;;;;;49.65;6.28;;;17.20;99.90;;;;;;5061605;28;20052;-84
2022/10/14 04:59:06;;;;;;;45.72;5.95;;;17.20;99.90;;;;;;5056313;28;20126;-85
2022/10/14 05:01:32;;;;;;;44.40;6.10;;;17.20;99.90;;;;;;5058703;28;20082;-85
2022/10/14 05:03:58;;;;;;;49.28;6.30;;;17.20;99.90;;;;;;5055149;28;20572;-85
2022/10/14 05:06:24;;;;;;;55.45;6.57;;;17.20;99.90;;;;;;5055752;28;20027;-85
2022/10/14 05:08:49;;;;;;;46.90;6.82;;;17.30;99.90;;;;;;5054063;28;20037;-85
2022/10/14 05:11:15;;;;;;;59.00;7.30;;;17.30;99.90;;;;;;5052034;28;20108;-86
2022/10/14 05:13:41;;;;;;;52.50;8.10;;;17.30;99.90;;;;;;5064044;28;20075;-84
2022/10/14 05:16:07;;;;;;;52.35;7.45;;;17.30;99.90;;;;;;5059110;28;20458;-85
2022/10/14 05:18:33;;;;;;;40.85;5.68;;;17.30;99.90;;;;;;5061504;28;20032;-85
2022/10/14 05:20:59;;;;;;;56.95;6.05;;;17.40;99.90;;;;;;5059315;28;20485;-85
2022/10/14 05:23:25;;;;;;;58.83;7.10;;;17.30;99.90;;;;;;5059179;28;20086;-85
2022/10/14 05:25:51;;;;;;;72.75;14.02;;;17.40;99.90;;;;;;5056735;28;20029;-85
2022/10/14 05:28:17;;;;;;;86.60;28.00;;;17.40;99.90;;;;;;5054928;28;20119;-85
2022/10/14 05:30:43;;;;;;;75.57;24.88;;;17.40;99.90;;;;;;5069523;28;20059;-85
2022/10/14 05:33:10;;;;;;;79.78;23.15;;;17.40;99.90;;;;;;5061079;28;20080;-85
2022/10/14 05:35:36;;;;;;;64.68;14.73;;;17.40;99.90;;;;;;5063575;28;20592;-85
2022/10/14 05:38:02;;;;;;;50.42;9.48;;;17.40;99.90;;;;;;5057412;28;20421;-84
2022/10/14 05:40:28;;;;;;;72.20;10.50;;;17.40;99.90;;;;;;5054475;28;20113;-85
2022/10/14 05:42:54;;;;;;;55.70;7.30;;;17.40;99.90;;;;;;5062794;28;20464;-85
2022/10/14 05:45:19;;;;;;;48.58;7.55;;;17.40;99.90;;;;;;5055695;28;20021;-84
2022/10/14 05:47:46;;;;;;;66.15;8.77;;;17.40;99.90;;;;;;5060996;28;20072;-85
2022/10/14 05:50:12;;;;;;;70.68;8.63;;;17.40;99.90;;;;;;5062041;28;20031;-85
2022/10/14 05:52:39;;;;;;;53.90;7.85;;;17.40;99.90;;;;;;5056411;28;20386;-85
2022/10/14 05:55:06;;;;;;;50.63;7.82;;;17.40;99.90;;;;;;5061063;28;20481;-85
2022/10/14 05:57:35;;;;;;;49.33;7.78;;;17.40;99.90;;;;;;5056121;28;20029;-84
2022/10/14 06:00:02;;;;;;;48.33;6.93;;;17.40;99.90;;;;;;5058136;28;20389;-85
2022/10/14 06:02:29;;;;;;;57.03;7.57;;;17.50;99.90;;;;;;5054853;28;20060;-85
2022/10/14 06:04:55;;;;;;;50.85;6.75;;;17.50;99.90;;;;;;5055583;28;20048;-84
2022/10/14 06:07:20;;;;;;;57.03;7.45;;;17.50;99.90;;;;;;5053098;28;20118;-85
2022/10/14 06:09:46;;;;;;;49.50;7.05;;;17.50;99.90;;;;;;5059300;28;20029;-85
2022/10/14 06:12:12;;;;;;;56.58;7.00;;;17.50;99.90;;;;;;5058633;28;20107;-85
2022/10/14 06:14:38;;;;;;;53.78;6.30;;;17.50;99.90;;;;;;5064109;28;20095;-85
2022/10/14 06:17:05;;;;;;;53.35;6.72;;;17.50;99.90;;;;;;5062687;28;20155;-85
2022/10/14 06:19:31;;;;;;;55.17;6.63;;;17.50;99.90;;;;;;5056264;28;20033;-85
2022/10/14 06:21:57;;;;;;;45.22;6.55;;;17.50;99.90;;;;;;5059328;28;20074;-86
2022/10/14 06:24:23;;;;;;;59.50;7.30;;;17.50;99.90;;;;;;5054056;28;20021;-87
2022/10/14 06:26:49;;;;;;;42.70;5.78;;;17.50;99.90;;;;;;5055641;28;20503;-85
2022/10/14 06:29:15;;;;;;;41.70;5.57;;;17.50;99.90;;;;;;5069000;28;20055;-83
2022/10/14 06:31:41;;;;;;;50.17;5.80;;;17.50;99.90;;;;;;5056489;28;20025;-84
2022/10/14 06:34:07;;;;;;;49.17;6.22;;;17.60;99.90;;;;;;5071756;28;20048;-82
2022/10/14 06:36:34;;;;;;;39.60;5.47;;;17.50;99.90;;;;;;5080606;28;20098;-82
2022/10/14 06:38:59;;;;;;;42.35;5.85;;;17.60;99.90;;;;;;5070557;28;20396;-82
2022/10/14 06:41:25;;;;;;;54.25;7.00;;;17.50;99.90;;;;;;5066352;28;20685;-83
2022/10/14 06:43:51;;;;;;;44.42;6.30;;;17.60;99.90;;;;;;5065460;28;20025;-83
2022/10/14 06:46:17;;;;;;;59.40;7.20;;;17.60;99.90;;;;;;5070827;28;20016;-82
2022/10/14 06:48:42;;;;;;;53.50;6.90;;;17.60;99.90;;;;;;5069971;28;20103;-83
2022/10/14 06:51:08;;;;;;;44.92;6.45;;;17.60;99.90;;;;;;5070583;28;20025;-83
2022/10/14 06:53:34;;;;;;;45.83;6.00;;;17.60;99.90;;;;;;5070504;28;20024;-83
2022/10/14 06:56:02;;;;;;;40.20;6.40;;;17.60;99.90;;;;;;5060795;28;20032;-83
2022/10/14 06:58:28;;;;;;;47.92;7.30;;;17.70;99.90;;;;;;5055392;28;20029;-83
2022/10/14 07:00:54;;;;;;;52.28;6.85;;;17.70;99.90;;;;;;5052663;28;20378;-84
2022/10/14 07:03:20;;;;;;;45.97;6.30;;;17.70;99.90;;;;;;5053160;28;20021;-83
2022/10/14 07:05:45;;;;;;;51.92;6.78;;;17.70;99.90;;;;;;5051040;28;20017;-83
2022/10/14 07:08:11;;;;;;;53.35;7.05;;;17.70;99.90;;;;;;5065556;28;20032;-82
2022/10/14 07:10:36;;;;;;;58.38;7.20;;;17.70;99.90;;;;;;5061318;28;20078;-83
2022/10/14 07:13:02;;;;;;;52.38;7.57;;;17.70;99.90;;;;;;5056125;28;20029;-83
2022/10/14 07:15:28;;;;;;;42.88;6.65;;;17.70;99.90;;;;;;5059562;28;20025;-82
2022/10/14 07:17:53;;;;;;;51.47;7.25;;;17.70;99.90;;;;;;5054445;28;20037;-82
2022/10/14 07:20:19;;;;;;;55.15;7.07;;;17.70;99.90;;;;;;5056854;28;20435;-82
2022/10/14 07:22:45;;;;;;;58.20;6.82;;;17.70;99.90;;;;;;5052794;28;20010;-82
2022/10/14 07:25:11;;;;;;;50.50;7.68;;;17.70;99.90;;;;;;5073364;28;20039;-82
2022/10/14 07:27:36;;;;;;;58.10;7.40;;;17.70;99.90;;;;;;5053512;28;20561;-82
2022/10/14 07:30:04;;;;;;;48.22;6.72;;;17.80;99.90;;;;;;5062770;28;20028;-82
2022/10/14 07:32:30;;;;;;;46.08;6.53;;;17.70;99.90;;;;;;5063122;28;20076;-82
2022/10/14 07:34:55;;;;;;;46.08;7.25;;;17.80;99.90;;;;;;5058162;28;20048;-82
2022/10/14 07:37:21;;;;;;;47.65;6.47;;;17.70;99.90;;;;;;5053876;28;20068;-82
2022/10/14 07:39:47;;;;;;;43.20;6.22;;;17.80;99.90;;;;;;5050799;28;20037;-82
2022/10/14 07:42:12;;;;;;;43.67;5.53;;;17.80;99.90;;;;;;5050312;28;20025;-82
2022/10/14 07:44:38;;;;;;;40.40;6.13;;;17.80;99.90;;;;;;5059001;28;20361;-82
2022/10/14 07:47:04;;;;;;;42.67;6.30;;;17.80;99.90;;;;;;5058207;28;20024;-82
2022/10/14 07:49:30;;;;;;;46.88;6.50;;;17.80;99.90;;;;;;5063105;28;20494;-82
2022/10/14 07:51:56;;;;;;;49.65;7.68;;;17.80;99.90;;;;;;5057095;28;20035;-82
2022/10/14 07:54:24;;;;;;;46.83;6.95;;;17.90;99.90;;;;;;5055394;28;20029;-82
2022/10/14 07:56:50;;;;;;;43.65;7.47;;;17.80;99.90;;;;;;5056735;28;20056;-82
2022/10/14 07:59:18;;;;;;;46.97;7.40;;;17.90;99.90;;;;;;5052767;28;20032;-82
2022/10/14 08:01:48;;;;;;;43.78;6.90;;;17.90;99.90;;;;;;5054888;28;20021;-83
2022/10/14 08:04:15;;;;;;;44.08;6.35;;;18.00;99.90;;;;;;5051880;28;20025;-82
2022/10/14 08:06:40;;;;;;;50.55;7.75;;;18.00;99.90;;;;;;5051982;28;20071;-82
2022/10/14 08:09:08;;;;;;;44.08;7.40;;;18.00;99.90;;;;;;5050458;28;20450;-82
2022/10/14 08:11:33;;;;;;;38.85;7.10;;;18.10;99.90;;;;;;5059040;28;20024;-82
2022/10/14 08:13:59;;;;;;;49.10;7.00;;;18.10;99.90;;;;;;5059278;28;20081;-82
2022/10/14 08:16:28;;;;;;;43.88;6.22;;;18.10;99.90;;;;;;5055365;28;20021;-82
2022/10/14 08:18:58;;;;;;;44.15;5.90;;;18.20;99.90;;;;;;5058379;28;20245;-82
2022/10/14 08:21:25;;;;;;;40.15;6.90;;;18.20;99.90;;;;;;5053732;28;20118;-82
2022/10/14 08:23:51;;;;;;;39.30;5.90;;;18.20;99.90;;;;;;5055905;28;20023;-82
2022/10/14 08:26:19;;;;;;;42.38;7.13;;;18.30;99.90;;;;;;5052325;28;20167;-82
2022/10/14 08:28:45;;;;;;;44.00;6.28;;;18.30;99.90;;;;;;5052953;28;20508;-82
2022/10/14 08:31:11;;;;;;;38.80;5.93;;;18.30;99.90;;;;;;5067417;28;20043;-82
2022/10/14 08:33:36;;;;;;;32.47;5.55;;;18.30;99.90;;;;;;5051929;28;20409;-82
2022/10/14 08:36:02;;;;;;;38.70;5.45;;;18.30;99.90;;;;;;5055048;28;20027;-83
2022/10/14 08:38:28;;;;;;;37.33;5.95;;;18.40;99.90;;;;;;5051713;28;20083;-82
2022/10/14 08:40:53;;;;;;;43.67;6.32;;;18.40;99.90;;;;;;5052242;28;20048;-83
2022/10/14 08:43:47;;;;;;;35.35;6.47;;;18.50;99.90;;;;;;5055092;28;20519;-82
2022/10/14 08:46:38;;;;;;;42.08;6.97;;;18.50;99.90;;;;;;5053065;28;20052;-83
2022/10/14 08:49:16;;;;;;;42.63;6.32;;;18.50;99.90;;;;;;5058136;28;20090;-82
2022/10/14 08:51:46;;;;;;;37.22;6.03;;;18.50;99.90;;;;;;5066587;28;20023;-82
2022/10/14 08:54:26;;;;;;;39.40;6.82;;;18.50;99.90;;;;;;5057839;28;20474;-83
2022/10/14 08:56:53;;;;;;;33.25;5.82;;;18.50;99.90;;;;;;5066301;28;20405;-82
2022/10/14 08:59:21;;;;;;;34.78;5.63;;;18.60;99.90;;;;;;5061025;28;20451;-82
2022/10/14 09:01:59;;;;;;;30.60;6.40;;;18.60;99.90;;;;;;5057849;28;20249;-82
2022/10/14 09:04:24;;;;;;;33.58;6.22;;;18.70;99.90;;;;;;5054669;28;20528;-82
2022/10/14 09:06:52;;;;;;;35.88;7.18;;;18.60;99.90;;;;;;5054794;28;20028;-82
2022/10/14 09:09:21;;;;;;;35.80;5.30;;;18.60;99.90;;;;;;5053157;28;20024;-82
2022/10/14 09:11:57;;;;;;;33.85;6.30;;;18.70;99.90;;;;;;5063539;28;20111;-83
2022/10/14 09:14:28;;;;;;;36.25;6.20;;;18.70;99.90;;;;;;5059367;28;20310;-82
2022/10/14 09:17:02;;;;;;;34.63;6.05;;;18.80;99.90;;;;;;5061995;28;20091;-83
2022/10/14 09:19:27;;;;;;;40.65;6.10;;;18.90;99.90;;;;;;5057426;28;20041;-83
2022/10/14 09:21:54;;;;;;;33.60;5.47;;;18.90;99.90;;;;;;5059367;28;20509;-82
2022/10/14 09:24:31;;;;;;;27.38;4.65;;;19.10;99.90;;;;;;5065677;28;20406;-83
2022/10/14 09:27:10;;;;;;;27.67;4.82;;;19.10;99.90;;;;;;5056719;28;20032;-83
2022/10/14 09:29:49;;;;;;;31.00;4.82;;;19.20;99.90;;;;;;5060156;28;20024;-83
2022/10/14 09:32:38;;;;;;;31.13;4.90;;;19.20;99.90;;;;;;5061818;28;20028;-82
2022/10/14 09:35:27;;;;;;;28.90;5.95;;;19.20;99.90;;;;;;5055557;28;20041;-83
2022/10/14 09:37:52;;;;;;;38.35;6.63;;;19.30;99.90;;;;;;5056681;28;20037;-82
2022/10/14 09:40:34;;;;;;;40.92;6.80;;;19.30;99.90;;;;;;5053921;28;20021;-83
2022/10/14 09:43:09;;;;;;;28.50;6.07;;;19.30;99.90;;;;;;5053722;28;20028;-83
2022/10/14 09:45:49;;;;;;;36.30;6.53;;;19.20;99.90;;;;;;5052480;28;20032;-82
2022/10/14 09:48:38;;;;;;;31.27;5.78;;;19.20;99.90;;;;;;5065520;28;20473;-83
2022/10/14 09:51:18;;;;;;;35.53;5.10;;;19.20;99.90;;;;;;5058808;28;20027;-83
2022/10/14 09:53:48;;;;;;;38.42;5.57;;;19.10;99.90;;;;;;5058064;28;20032;-83
2022/10/14 09:56:14;;;;;;;28.98;5.35;;;19.20;99.90;;;;;;5058471;28;20469;-83
2022/10/14 09:58:55;;;;;;;33.80;6.60;;;19.20;99.90;;;;;;5056051;28;20083;-83
2022/10/14 10:01:23;;;;;;;30.95;5.45;;;19.20;99.90;;;;;;5056490;28;20104;-83
2022/10/14 10:03:51;;;;;;;36.80;5.95;;;19.30;99.90;;;;;;5053374;28;20040;-82
2022/10/14 10:06:21;;;;;;;40.63;6.38;;;19.30;99.90;;;;;;5053503;28;20019;-83
2022/10/14 10:09:00;;;;;;;30.58;5.75;;;19.30;99.90;;;;;;5063773;28;20032;-83
2022/10/14 10:11:36;;;;;;;44.03;6.85;;;19.30;99.90;;;;;;5063993;28;20362;-82
2022/10/14 10:14:22;;;;;;;36.70;5.90;;;19.30;99.90;;;;;;5060547;28;20029;-83
2022/10/14 10:17:11;;;;;;;44.15;7.15;;;19.40;99.90;;;;;;5059887;28;20066;-82
2022/10/14 10:20:01;;;;;;;43.75;6.95;;;19.20;99.90;;;;;;5055767;28;20045;-84
2022/10/14 10:22:35;;;;;;;41.72;7.63;;;19.20;99.90;;;;;;5064646;28;20027;-83
2022/10/14 10:25:06;;;;;;;39.25;5.85;;;19.20;99.90;;;;;;5055046;28;20401;-83
2022/10/14 10:27:35;;;;;;;36.35;6.13;;;19.20;99.90;;;;;;5053823;28;20027;-83
2022/10/14 10:30:37;;;;;;;35.85;7.50;;;19.20;99.90;;;;;;5062319;28;20111;-83
2022/10/14 10:33:35;;;;;;;40.35;7.55;;;19.30;99.90;;;;;;5050527;28;20530;-83
2022/10/14 10:36:29;;;;;;;41.47;6.95;;;19.40;99.90;;;;;;5056480;28;20012;-82
2022/10/14 10:39:09;;;;;;;35.90;6.93;;;19.30;99.90;;;;;;5053134;28;20174;-82
2022/10/14 10:41:50;;;;;;;50.55;8.98;;;19.20;99.90;;;;;;5064423;28;20013;-82
2022/10/14 10:44:21;;;;;;;39.10;6.82;;;19.20;99.90;;;;;;5052710;28;20070;-82
2022/10/14 10:47:19;;;;;;;43.05;9.75;;;19.10;99.90;;;;;;5068649;28;20040;-83
2022/10/14 10:50:08;;;;;;;44.80;8.18;;;19.10;99.90;;;;;;5059330;28;20028;-83
2022/10/14 10:52:51;;;;;;;45.63;8.05;;;19.20;99.90;;;;;;5055715;28;20389;-83
2022/10/14 10:55:25;;;;;;;46.50;9.35;;;19.20;99.90;;;;;;5066661;28;20029;-83
2022/10/14 10:58:01;;;;;;;33.97;7.78;;;19.20;99.90;;;;;;5065314;28;20032;-83
2022/10/14 11:00:30;;;;;;;43.38;7.97;;;19.30;99.90;;;;;;5057435;28;20055;-82
2022/10/14 11:03:14;;;;;;;33.00;7.43;;;19.30;99.90;;;;;;5053790;28;20570;-84
2022/10/14 11:05:51;;;;;;;44.55;9.05;;;19.30;99.90;;;;;;5056399;28;20021;-83
2022/10/14 11:14:23;;;;;;;49.13;8.50;;;19.10;99.90;;;;;;5055045;28;20078;-83
2022/10/14 11:16:51;;;;;;;40.50;7.80;;;19.20;99.90;;;;;;5057688;28;20028;-84
2022/10/14 11:19:20;;;;;;;48.75;8.43;;;19.20;99.90;;;;;;5069714;28;20519;-84
2022/10/14 11:22:03;;;;;;;50.70;8.23;;;19.30;99.90;;;;;;5069795;28;20026;-83
2022/10/14 11:24:53;;;;;;;46.67;8.23;;;19.20;99.90;;;;;;5061623;28;20021;-84
2022/10/14 11:27:46;;;;;;;41.53;7.38;;;19.30;99.90;;;;;;5069461;28;20027;-83
2022/10/14 11:30:42;;;;;;;47.45;8.80;;;19.30;99.90;;;;;;5055325;28;20035;-83
2022/10/14 11:33:25;;;;;;;43.53;8.40;;;19.20;99.90;;;;;;5063407;28;20037;-84
2022/10/14 11:36:22;;;;;;;46.20;7.67;;;19.20;99.90;;;;;;5074506;28;20036;-84
2022/10/14 11:39:01;;;;;;;44.22;8.10;;;19.20;99.90;;;;;;5074825;28;20033;-83
2022/10/14 11:41:37;;;;;;;42.70;8.45;;;19.20;99.90;;;;;;5086119;28;20324;-83
2022/10/14 11:44:27;;;;;;;55.08;10.30;;;19.10;99.90;;;;;;5079911;28;20086;-83
2022/10/14 11:46:57;;;;;;;54.45;9.00;;;19.20;99.90;;;;;;5080263;28;20058;-82
2022/10/14 11:49:31;;;;;;;43.03;8.45;;;19.10;99.90;;;;;;5080858;28;20020;-82
2022/10/14 11:52:07;;;;;;;44.58;8.20;;;19.10;99.90;;;;;;5080873;28;20035;-83
2022/10/14 11:54:42;;;;;;;41.53;7.80;;;19.10;99.90;;;;;;5080813;28;20099;-82
2022/10/14 11:57:46;;;;;;;57.17;8.40;;;19.10;99.90;;;;;;5080632;28;20021;-81
2022/10/14 12:00:17;;;;;;;54.53;9.52;;;19.10;99.90;;;;;;5080401;28;20033;-82
2022/10/14 12:03:08;;;;;;;45.85;9.20;;;19.10;99.90;;;;;;5080925;28;20012;-82
2022/10/14 12:05:49;;;;;;;42.58;7.70;;;19.20;99.90;;;;;;5080711;28;20011;-82
2022/10/14 12:08:22;;;;;;;44.35;8.73;;;19.10;99.90;;;;;;5078902;28;20028;-82
2022/10/14 12:11:13;;;;;;;50.65;9.85;;;19.20;99.90;;;;;;5077525;28;20017;-82
2022/10/14 12:13:43;;;;;;;48.70;9.45;;;19.20;99.90;;;;;;5037047;28;20273;-82
2022/10/14 12:16:15;;;;;;;49.85;9.40;;;19.20;99.90;;;;;;5064290;28;20256;-82
2022/10/14 12:18:43;;;;;;;54.15;8.38;;;19.20;99.90;;;;;;5066193;28;20024;-82
2022/10/14 12:21:41;;;;;;;43.47;8.48;;;19.30;99.90;;;;;;5062938;28;20328;-82
2022/10/14 12:24:22;;;;;;;45.20;9.27;;;19.40;99.90;;;;;;5070099;28;20040;-82
2022/10/14 12:26:55;;;;;;;46.85;8.73;;;19.40;99.90;;;;;;5078316;28;20020;-82
2022/10/14 12:29:36;;;;;;;45.55;8.80;;;19.40;99.90;;;;;;5075602;28;20262;-82
2022/10/14 12:32:14;;;;;;;53.35;9.25;;;19.40;99.90;;;;;;5079271;28;20016;-83
2022/10/14 12:34:41;;;;;;;44.80;9.20;;;19.50;99.90;;;;;;5074533;28;20290;-82
2022/10/14 12:37:36;;;;;;;48.67;9.27;;;19.50;99.90;;;;;;5073336;28;20025;-82
2022/10/14 12:40:05;;;;;;;40.58;8.65;;;19.50;99.90;;;;;;5063489;28;20044;-82
2022/10/14 12:42:43;;;;;;;44.35;7.97;;;19.60;99.90;;;;;;5070791;28;20017;-83
2022/10/14 12:45:25;;;;;;;43.88;8.02;;;19.60;99.90;;;;;;5065708;28;20025;-81
2022/10/14 12:48:00;;;;;;;50.90;9.55;;;19.60;99.90;;;;;;5076683;28;20076;-82
2022/10/14 12:50:35;;;;;;;49.20;7.90;;;19.70;99.90;;;;;;5064934;28;20084;-82
2022/10/14 12:53:04;;;;;;;45.33;8.45;;;19.70;99.90;;;;;;5076674;28;20313;-82
2022/10/14 12:55:34;;;;;;;54.20;8.02;;;19.60;99.90;;;;;;5063769;28;20025;-82
2022/10/14 12:58:03;;;;;;;51.08;8.43;;;19.50;99.90;;;;;;5075040;28;20104;-82
2022/10/14 13:00:39;;;;;;;46.28;8.02;;;19.50;99.90;;;;;;5068200;28;20089;-82
2022/10/14 13:03:18;;;;;;;51.88;9.48;;;19.50;99.90;;;;;;5072208;28;20087;-82